sensor_id;sensor_type;location;lat;lon;timestamp;pressure;altitude;pressure_sealevel;temperature;humidity
21574;BME280;10948;48.706;9.258;2023-04-22T00:01:50;97140.41;;;13.40;100.00
21574;BME280;10948;48.706;9.258;2023-04-22T00:04:15;97145.03;;;13.47;100.00
21574;BME280;10948;48.706;9.258;2023-04-22T00:06:40;97141.03;;;13.64;100.00
21574;BME280;10948;48.706;9.258;2023-04-22T00:09:06;97139.59;;;13.60;100.00
21574;BME280;10948;48.706;9.258;2023-04-22T00:11:31;97136.47;;;13.45;100.00
21574;BME280;10948;48.706;9.258;2023-04-22T00:13:56;97133.50;;;13.50;100.00
21574;BME280;10948;48.706;9.258;2023-04-22T00:16:21;97132.56;;;13.40;100.00
21574;BME280;10948;48.706;9.258;2023-04-22T00:18:47;97141.34;;;13.39;100.00
21574;BME280;10948;48.706;9.258;2023-04-22T00:21:12;97128.50;;;13.47;100.00
21574;BME280;10948;48.706;9.258;2023-04-22T00:23:37;97137.09;;;13.38;100.00
21574;BME280;10948;48.706;9.258;2023-04-22T00:26:03;97139.81;;;13.36;100.00
21574;BME280;10948;48.706;9.258;2023-04-22T00:28:28;97137.22;;;13.36;100.00
21574;BME280;10948;48.706;9.258;2023-04-22T00:30:53;97138.28;;;13.34;100.00
21574;BME280;10948;48.706;9.258;2023-04-22T00:33:18;97133.53;;;13.28;100.00
21574;BME280;10948;48.706;9.258;2023-04-22T00:35:44;97141.53;;;13.26;100.00
21574;BME280;10948;48.706;9.258;2023-04-22T00:38:10;97130.63;;;13.21;100.00
21574;BME280;10948;48.706;9.258;2023-04-22T00:40:35;97132.06;;;13.14;100.00
21574;BME280;10948;48.706;9.258;2023-04-22T00:43:00;97131.00;;;13.17;100.00
21574;BME280;10948;48.706;9.258;2023-04-22T00:45:26;97130.72;;;13.20;100.00
21574;BME280;10948;48.706;9.258;2023-04-22T00:47:52;97124.22;;;13.14;100.00
21574;BME280;10948;48.706;9.258;2023-04-22T00:50:18;97132.19;;;13.13;100.00
21574;BME280;10948;48.706;9.258;2023-04-22T00:52:43;97131.00;;;13.06;100.00
21574;BME280;10948;48.706;9.258;2023-04-22T00:55:08;97133.97;;;13.12;100.00
21574;BME280;10948;48.706;9.258;2023-04-22T00:57:34;97130.44;;;13.02;100.00
21574;BME280;10948;48.706;9.258;2023-04-22T01:00:00;97127.81;;;13.02;100.00
21574;BME280;10948;48.706;9.258;2023-04-22T01:02:25;97132.06;;;13.03;100.00
21574;BME280;10948;48.706;9.258;2023-04-22T01:04:51;97136.59;;;13.01;100.00
21574;BME280;10948;48.706;9.258;2023-04-22T01:07:18;97121.75;;;13.02;100.00
21574;BME280;10948;48.706;9.258;2023-04-22T01:09:43;97123.16;;;13.06;100.00
21574;BME280;10948;48.706;9.258;2023-04-22T01:12:08;97123.91;;;12.97;100.00
21574;BME280;10948;48.706;9.258;2023-04-22T01:14:34;97125.69;;;12.96;100.00
21574;BME280;10948;48.706;9.258;2023-04-22T01:16:59;97118.69;;;12.97;100.00
21574;BME280;10948;48.706;9.258;2023-04-22T01:19:24;97124.59;;;12.88;100.00
21574;BME280;10948;48.706;9.258;2023-04-22T01:21:50;97129.59;;;12.91;100.00
21574;BME280;10948;48.706;9.258;2023-04-22T01:24:16;97134.13;;;12.89;100.00
21574;BME280;10948;48.706;9.258;2023-04-22T01:26:41;97130.78;;;12.87;100.00
21574;BME280;10948;48.706;9.258;2023-04-22T01:29:07;97139.34;;;12.78;100.00
21574;BME280;10948;48.706;9.258;2023-04-22T01:31:32;97132.47;;;12.77;100.00
21574;BME280;10948;48.706;9.258;2023-04-22T01:33:57;97129.38;;;12.72;100.00
21574;BME280;10948;48.706;9.258;2023-04-22T01:36:23;97133.75;;;12.71;100.00
21574;BME280;10948;48.706;9.258;2023-04-22T01:38:48;97133.75;;;12.71;100.00
21574;BME280;10948;48.706;9.258;2023-04-22T01:41:14;97129.16;;;12.64;100.00
21574;BME280;10948;48.706;9.258;2023-04-22T01:43:40;97129.41;;;12.50;100.00
21574;BME280;10948;48.706;9.258;2023-04-22T01:46:05;97134.63;;;12.50;100.00
21574;BME280;10948;48.706;9.258;2023-04-22T01:48:31;97139.72;;;12.51;100.00
21574;BME280;10948;48.706;9.258;2023-04-22T01:50:56;97138.66;;;12.65;100.00
21574;BME280;10948;48.706;9.258;2023-04-22T01:53:22;97138.16;;;12.71;100.00
21574;BME280;10948;48.706;9.258;2023-04-22T01:55:47;97130.56;;;12.79;100.00
21574;BME280;10948;48.706;9.258;2023-04-22T01:58:12;97129.38;;;12.72;100.00
21574;BME280;10948;48.706;9.258;2023-04-22T02:00:38;97133.91;;;12.70;100.00
21574;BME280;10948;48.706;9.258;2023-04-22T02:03:03;97133.44;;;12.65;100.00
21574;BME280;10948;48.706;9.258;2023-04-22T02:05:29;97141.25;;;12.54;100.00
21574;BME280;10948;48.706;9.258;2023-04-22T02:07:54;97139.38;;;12.56;100.00
21574;BME280;10948;48.706;9.258;2023-04-22T02:10:19;97144.59;;;12.56;100.00
21574;BME280;10948;48.706;9.258;2023-04-22T02:12:44;97148.13;;;12.55;100.00
21574;BME280;10948;48.706;9.258;2023-04-22T02:15:10;97149.91;;;12.43;100.00
21574;BME280;10948;48.706;9.258;2023-04-22T02:17:35;97151.34;;;12.47;100.00
21574;BME280;10948;48.706;9.258;2023-04-22T02:20:03;97163.06;;;12.42;100.00
21574;BME280;10948;48.706;9.258;2023-04-22T02:22:30;97161.41;;;12.41;100.00
21574;BME280;10948;48.706;9.258;2023-04-22T02:24:55;97158.34;;;12.36;100.00
21574;BME280;10948;48.706;9.258;2023-04-22T02:27:20;97159.75;;;12.40;100.00
21574;BME280;10948;48.706;9.258;2023-04-22T02:29:46;97155.25;;;12.31;100.00
21574;BME280;10948;48.706;9.258;2023-04-22T02:32:12;97156.66;;;12.35;100.00
21574;BME280;10948;48.706;9.258;2023-04-22T02:34:37;97155.97;;;12.33;100.00
21574;BME280;10948;48.706;9.258;2023-04-22T02:37:03;97155.97;;;12.33;100.00
21574;BME280;10948;48.706;9.258;2023-04-22T02:39:28;97155.16;;;12.32;100.00
21574;BME280;10948;48.706;9.258;2023-04-22T02:41:53;97155.94;;;12.22;100.00
21574;BME280;10948;48.706;9.258;2023-04-22T02:44:18;97160.94;;;12.25;100.00
21574;BME280;10948;48.706;9.258;2023-04-22T02:46:44;97162.84;;;12.23;100.00
21574;BME280;10948;48.706;9.258;2023-04-22T02:49:09;97166.72;;;12.06;100.00
21574;BME280;10948;48.706;9.258;2023-04-22T02:51:36;97165.63;;;12.09;100.00
21574;BME280;10948;48.706;9.258;2023-04-22T02:54:01;97167.44;;;12.08;100.00
21574;BME280;10948;48.706;9.258;2023-04-22T02:56:26;97172.16;;;12.03;100.00
21574;BME280;10948;48.706;9.258;2023-04-22T02:58:52;97169.19;;;12.08;100.00
21574;BME280;10948;48.706;9.258;2023-04-22T03:01:17;97166.13;;;12.03;100.00
21574;BME280;10948;48.706;9.258;2023-04-22T03:03:42;97168.13;;;12.10;100.00
21574;BME280;10948;48.706;9.258;2023-04-22T03:06:07;97166.25;;;12.12;100.00
21574;BME280;10948;48.706;9.258;2023-04-22T03:08:33;97165.03;;;12.05;100.00
21574;BME280;10948;48.706;9.258;2023-04-22T03:10:58;97158.09;;;12.17;100.00
21574;BME280;10948;48.706;9.258;2023-04-22T03:13:23;97154.50;;;12.07;100.00
21574;BME280;10948;48.706;9.258;2023-04-22T03:15:48;97156.81;;;11.88;100.00
21574;BME280;10948;48.706;9.258;2023-04-22T03:18:14;97157.66;;;11.88;100.00
21574;BME280;10948;48.706;9.258;2023-04-22T03:20:39;97148.53;;;11.83;100.00
21574;BME280;10948;48.706;9.258;2023-04-22T03:23:04;97159.13;;;11.69;100.00
21574;BME280;10948;48.706;9.258;2023-04-22T03:25:31;97154.22;;;11.77;100.00
21574;BME280;10948;48.706;9.258;2023-04-22T03:27:56;97161.75;;;11.69;100.00
21574;BME280;10948;48.706;9.258;2023-04-22T03:30:22;97164.31;;;11.58;100.00
21574;BME280;10948;48.706;9.258;2023-04-22T03:32:47;97160.81;;;11.46;100.00
21574;BME280;10948;48.706;9.258;2023-04-22T03:35:12;97163.09;;;11.51;100.00
21574;BME280;10948;48.706;9.258;2023-04-22T03:37:38;97164.47;;;11.44;100.00
21574;BME280;10948;48.706;9.258;2023-04-22T03:40:03;97173.00;;;11.46;100.00
21574;BME280;10948;48.706;9.258;2023-04-22T03:42:29;97166.84;;;11.47;100.00
21574;BME280;10948;48.706;9.258;2023-04-22T03:44:55;97163.03;;;11.40;100.00
21574;BME280;10948;48.706;9.258;2023-04-22T03:47:20;97164.91;;;11.38;100.00
21574;BME280;10948;48.706;9.258;2023-04-22T03:49:45;97155.44;;;11.37;100.00
21574;BME280;10948;48.706;9.258;2023-04-22T03:52:10;97162.47;;;11.47;100.00
21574;BME280;10948;48.706;9.258;2023-04-22T03:54:36;97158.75;;;11.39;100.00
21574;BME280;10948;48.706;9.258;2023-04-22T03:57:01;97163.97;;;11.39;100.00
21574;BME280;10948;48.706;9.258;2023-04-22T03:59:26;97170.22;;;11.36;100.00
21574;BME280;10948;48.706;9.258;2023-04-22T04:01:52;97169.53;;;11.11;100.00
21574;BME280;10948;48.706;9.258;2023-04-22T04:04:17;97161.56;;;11.12;100.00
21574;BME280;10948;48.706;9.258;2023-04-22T04:06:43;97160.94;;;11.21;100.00
21574;BME280;10948;48.706;9.258;2023-04-22T04:09:08;97169.09;;;11.17;100.00
21574;BME280;10948;48.706;9.258;2023-04-22T04:11:33;97167.19;;;11.19;100.00
21574;BME280;10948;48.706;9.258;2023-04-22T04:13:58;97172.59;;;11.16;100.00
21574;BME280;10948;48.706;9.258;2023-04-22T04:16:24;97167.72;;;11.35;100.00
21574;BME280;10948;48.706;9.258;2023-04-22T04:18:49;97162.19;;;11.16;100.00
21574;BME280;10948;48.706;9.258;2023-04-22T04:21:15;97157.38;;;11.22;100.00
21574;BME280;10948;48.706;9.258;2023-04-22T04:23:40;97153.06;;;11.10;100.00
21574;BME280;10948;48.706;9.258;2023-04-22T04:26:05;97154.34;;;11.05;100.00
21574;BME280;10948;48.706;9.258;2023-04-22T04:28:30;97148.06;;;11.07;100.00
21574;BME280;10948;48.706;9.258;2023-04-22T04:30:57;97146.53;;;10.92;100.00
21574;BME280;10948;48.706;9.258;2023-04-22T04:33:22;97152.88;;;11.01;100.00
21574;BME280;10948;48.706;9.258;2023-04-22T04:35:47;97151.81;;;11.03;100.00
21574;BME280;10948;48.706;9.258;2023-04-22T04:38:12;97162.13;;;10.82;100.00
21574;BME280;10948;48.706;9.258;2023-04-22T04:40:38;97162.47;;;11.00;100.00
21574;BME280;10948;48.706;9.258;2023-04-22T04:43:03;97155.47;;;11.01;100.00
21574;BME280;10948;48.706;9.258;2023-04-22T04:45:32;97156.00;;;11.06;100.00
21574;BME280;10948;48.706;9.258;2023-04-22T04:47:57;97153.91;;;11.11;100.00
21574;BME280;10948;48.706;9.258;2023-04-22T04:50:24;97159.31;;;11.08;100.00
21574;BME280;10948;48.706;9.258;2023-04-22T04:52:51;97157.81;;;11.16;100.00
21574;BME280;10948;48.706;9.258;2023-04-22T04:55:17;97155.13;;;11.18;100.00
21574;BME280;10948;48.706;9.258;2023-04-22T04:57:45;97156.34;;;11.25;100.00
21574;BME280;10948;48.706;9.258;2023-04-22T05:00:10;97158.34;;;11.09;100.00
21574;BME280;10948;48.706;9.258;2023-04-22T05:02:36;97156.69;;;11.08;100.00
21574;BME280;10948;48.706;9.258;2023-04-22T05:05:01;97158.25;;;11.10;100.00
21574;BME280;10948;48.706;9.258;2023-04-22T05:07:27;97158.09;;;11.01;100.00
21574;BME280;10948;48.706;9.258;2023-04-22T05:09:52;97161.47;;;11.14;100.00
21574;BME280;10948;48.706;9.258;2023-04-22T05:12:17;97151.78;;;11.16;100.00
21574;BME280;10948;48.706;9.258;2023-04-22T05:14:43;97158.22;;;11.23;100.00
21574;BME280;10948;48.706;9.258;2023-04-22T05:17:08;97156.09;;;11.28;100.00
21574;BME280;10948;48.706;9.258;2023-04-22T05:19:33;97155.16;;;11.29;100.00
21574;BME280;10948;48.706;9.258;2023-04-22T05:21:59;97154.00;;;11.33;100.00
21574;BME280;10948;48.706;9.258;2023-04-22T05:24:24;97161.13;;;11.42;100.00
21574;BME280;10948;48.706;9.258;2023-04-22T05:26:49;97156.66;;;11.44;100.00
21574;BME280;10948;48.706;9.258;2023-04-22T05:29:15;97148.88;;;11.31;100.00
21574;BME280;10948;48.706;9.258;2023-04-22T05:31:40;97150.69;;;11.31;100.00
21574;BME280;10948;48.706;9.258;2023-04-22T05:34:05;97159.66;;;11.27;100.00
21574;BME280;10948;48.706;9.258;2023-04-22T05:36:31;97160.31;;;11.41;100.00
21574;BME280;10948;48.706;9.258;2023-04-22T05:38:56;97161.13;;;11.42;100.00
21574;BME280;10948;48.706;9.258;2023-04-22T05:41:21;97172.06;;;11.47;100.00
21574;BME280;10948;48.706;9.258;2023-04-22T05:43:46;97166.19;;;11.56;100.00
21574;BME280;10948;48.706;9.258;2023-04-22T05:46:12;97174.31;;;11.64;100.00
21574;BME280;10948;48.706;9.258;2023-04-22T05:48:37;97169.31;;;11.61;100.00
21574;BME280;10948;48.706;9.258;2023-04-22T05:51:02;97171.97;;;11.72;100.00
21574;BME280;10948;48.706;9.258;2023-04-22T05:53:28;97177.47;;;11.91;100.00
21574;BME280;10948;48.706;9.258;2023-04-22T05:55:53;97178.28;;;11.91;100.00
21574;BME280;10948;48.706;9.258;2023-04-22T05:58:19;97179.06;;;12.15;100.00
21574;BME280;10948;48.706;9.258;2023-04-22T06:00:44;97174.22;;;12.33;100.00
21574;BME280;10948;48.706;9.258;2023-04-22T06:03:10;97179.69;;;12.52;100.00
21574;BME280;10948;48.706;9.258;2023-04-22T06:05:35;97176.50;;;12.59;100.00
21574;BME280;10948;48.706;9.258;2023-04-22T06:08:01;97181.13;;;12.78;100.00
21574;BME280;10948;48.706;9.258;2023-04-22T06:10:26;97179.56;;;13.08;100.00
21574;BME280;10948;48.706;9.258;2023-04-22T06:12:51;97174.53;;;13.27;100.00
21574;BME280;10948;48.706;9.258;2023-04-22T06:15:16;97180.78;;;13.47;100.00
21574;BME280;10948;48.706;9.258;2023-04-22T06:17:42;97175.81;;;13.44;100.00
21574;BME280;10948;48.706;9.258;2023-04-22T06:20:09;97180.13;;;13.65;100.00
21574;BME280;10948;48.706;9.258;2023-04-22T06:22:34;97183.25;;;13.80;100.00
21574;BME280;10948;48.706;9.258;2023-04-22T06:25:00;97172.28;;;13.86;100.00
21574;BME280;10948;48.706;9.258;2023-04-22T06:27:25;97173.06;;;14.18;100.00
21574;BME280;10948;48.706;9.258;2023-04-22T06:29:50;97178.03;;;15.01;97.98
21574;BME280;10948;48.706;9.258;2023-04-22T06:32:15;97176.41;;;15.97;89.71
21574;BME280;10948;48.706;9.258;2023-04-22T06:34:41;97176.34;;;16.35;87.04
21574;BME280;10948;48.706;9.258;2023-04-22T06:37:06;97178.34;;;15.76;90.11
21574;BME280;10948;48.706;9.258;2023-04-22T06:39:31;97186.75;;;15.51;92.74
21574;BME280;10948;48.706;9.258;2023-04-22T06:41:57;97186.63;;;15.62;92.63
21574;BME280;10948;48.706;9.258;2023-04-22T06:44:22;97178.50;;;15.16;93.08
21574;BME280;10948;48.706;9.258;2023-04-22T06:46:49;97183.56;;;15.47;91.87
21574;BME280;10948;48.706;9.258;2023-04-22T06:49:14;97182.19;;;15.53;91.10
21574;BME280;10948;48.706;9.258;2023-04-22T06:51:40;97189.06;;;15.54;93.23
21574;BME280;10948;48.706;9.258;2023-04-22T06:54:05;97179.41;;;15.45;93.22
21574;BME280;10948;48.706;9.258;2023-04-22T06:56:30;97176.03;;;15.24;93.58
21574;BME280;10948;48.706;9.258;2023-04-22T06:58:56;97176.09;;;15.33;93.90
21574;BME280;10948;48.706;9.258;2023-04-22T07:01:21;97179.09;;;15.29;93.67
21574;BME280;10948;48.706;9.258;2023-04-22T07:03:47;97177.16;;;15.31;94.60
21574;BME280;10948;48.706;9.258;2023-04-22T07:06:12;97181.88;;;15.37;95.56
21574;BME280;10948;48.706;9.258;2023-04-22T07:08:37;97186.59;;;15.43;94.70
21574;BME280;10948;48.706;9.258;2023-04-22T07:11:02;97185.78;;;15.61;93.49
21574;BME280;10948;48.706;9.258;2023-04-22T07:13:28;97179.84;;;15.59;93.84
21574;BME280;10948;48.706;9.258;2023-04-22T07:15:57;97185.25;;;15.77;93.45
21574;BME280;10948;48.706;9.258;2023-04-22T07:18:23;97184.16;;;15.89;92.65
21574;BME280;10948;48.706;9.258;2023-04-22T07:20:48;97179.81;;;16.07;92.33
21574;BME280;10948;48.706;9.258;2023-04-22T07:23:13;97177.75;;;16.10;92.53
21574;BME280;10948;48.706;9.258;2023-04-22T07:25:39;97173.31;;;16.20;91.36
21574;BME280;10948;48.706;9.258;2023-04-22T07:28:04;97173.22;;;16.03;91.63
21574;BME280;10948;48.706;9.258;2023-04-22T07:30:29;97164.88;;;16.36;90.29
21574;BME280;10948;48.706;9.258;2023-04-22T07:32:55;97149.53;;;16.41;89.51
21574;BME280;10948;48.706;9.258;2023-04-22T07:35:20;97154.25;;;16.74;87.97
21574;BME280;10948;48.706;9.258;2023-04-22T07:37:45;97152.06;;;16.69;87.88
21574;BME280;10948;48.706;9.258;2023-04-22T07:40:10;97151.03;;;16.80;87.21
21574;BME280;10948;48.706;9.258;2023-04-22T07:42:38;97153.41;;;16.83;86.15
21574;BME280;10948;48.706;9.258;2023-04-22T07:45:03;97156.97;;;16.91;85.26
21574;BME280;10948;48.706;9.258;2023-04-22T07:47:29;97159.63;;;17.35;83.11
21574;BME280;10948;48.706;9.258;2023-04-22T07:49:54;97160.97;;;17.84;81.79
21574;BME280;10948;48.706;9.258;2023-04-22T07:52:19;97157.59;;;18.60;76.71
21574;BME280;10948;48.706;9.258;2023-04-22T07:54:45;97159.78;;;18.21;75.85
21574;BME280;10948;48.706;9.258;2023-04-22T07:57:10;97161.06;;;18.60;75.01
21574;BME280;10948;48.706;9.258;2023-04-22T07:59:35;97165.78;;;18.82;75.77
21574;BME280;10948;48.706;9.258;2023-04-22T08:02:01;97161.53;;;18.89;73.42
21574;BME280;10948;48.706;9.258;2023-04-22T08:04:26;97169.63;;;19.29;71.25
21574;BME280;10948;48.706;9.258;2023-04-22T08:06:51;97178.53;;;18.95;70.64
21574;BME280;10948;48.706;9.258;2023-04-22T08:09:16;97184.22;;;18.74;71.87
21574;BME280;10948;48.706;9.258;2023-04-22T08:11:41;97181.31;;;18.93;72.51
21574;BME280;10948;48.706;9.258;2023-04-22T08:14:07;97184.25;;;19.65;71.44
21574;BME280;10948;48.706;9.258;2023-04-22T08:16:32;97189.38;;;19.67;70.16
21574;BME280;10948;48.706;9.258;2023-04-22T08:18:57;97176.22;;;19.91;68.49
21574;BME280;10948;48.706;9.258;2023-04-22T08:21:22;97183.44;;;19.73;66.69
21574;BME280;10948;48.706;9.258;2023-04-22T08:23:48;97178.88;;;20.07;66.60
21574;BME280;10948;48.706;9.258;2023-04-22T08:26:13;97177.50;;;19.79;67.23
21574;BME280;10948;48.706;9.258;2023-04-22T08:28:40;97177.56;;;20.27;64.91
21574;BME280;10948;48.706;9.258;2023-04-22T08:31:06;97174.19;;;20.73;63.00
21574;BME280;10948;48.706;9.258;2023-04-22T08:33:33;97169.75;;;21.58;60.47
21574;BME280;10948;48.706;9.258;2023-04-22T08:35:58;97168.63;;;21.83;58.78
21574;BME280;10948;48.706;9.258;2023-04-22T08:38:23;97176.94;;;24.41;52.42
21574;BME280;10948;48.706;9.258;2023-04-22T08:40:49;97172.91;;;25.00;47.90
21574;BME280;10948;48.706;9.258;2023-04-22T08:43:14;97176.47;;;26.33;44.94
21574;BME280;10948;48.706;9.258;2023-04-22T08:45:39;97178.22;;;27.56;42.06
21574;BME280;10948;48.706;9.258;2023-04-22T08:48:09;97178.72;;;27.08;41.54
21574;BME280;10948;48.706;9.258;2023-04-22T08:50:36;97181.06;;;26.72;43.35
21574;BME280;10948;48.706;9.258;2023-04-22T08:53:03;97185.31;;;27.05;42.41
21574;BME280;10948;48.706;9.258;2023-04-22T08:55:28;97177.84;;;27.40;42.70
21574;BME280;10948;48.706;9.258;2023-04-22T08:57:54;97176.66;;;27.10;42.57
21574;BME280;10948;48.706;9.258;2023-04-22T09:00:20;97175.56;;;25.34;42.82
21574;BME280;10948;48.706;9.258;2023-04-22T09:02:45;97172.00;;;25.61;44.63
21574;BME280;10948;48.706;9.258;2023-04-22T09:05:11;97160.88;;;26.30;44.58
21574;BME280;10948;48.706;9.258;2023-04-22T09:07:37;97161.94;;;26.42;44.40
21574;BME280;10948;48.706;9.258;2023-04-22T09:10:03;97153.69;;;26.44;43.93
21574;BME280;10948;48.706;9.258;2023-04-22T09:12:29;97156.03;;;25.74;45.23
21574;BME280;10948;48.706;9.258;2023-04-22T09:14:54;97148.31;;;25.92;43.88
21574;BME280;10948;48.706;9.258;2023-04-22T09:17:33;97150.97;;;25.32;43.11
21574;BME280;10948;48.706;9.258;2023-04-22T09:19:59;97151.50;;;25.68;44.51
21574;BME280;10948;48.706;9.258;2023-04-22T09:22:28;97149.09;;;25.86;45.49
21574;BME280;10948;48.706;9.258;2023-04-22T09:25:02;97143.84;;;26.31;44.15
21574;BME280;10948;48.706;9.258;2023-04-22T09:27:28;97151.03;;;26.05;43.54
21574;BME280;10948;48.706;9.258;2023-04-22T09:29:53;97141.78;;;26.27;43.64
21574;BME280;10948;48.706;9.258;2023-04-22T09:32:18;97154.34;;;25.60;44.54
21574;BME280;10948;48.706;9.258;2023-04-22T09:34:45;97146.06;;;25.42;42.97
21574;BME280;10948;48.706;9.258;2023-04-22T09:37:11;97144.91;;;25.57;43.74
21574;BME280;10948;48.706;9.258;2023-04-22T09:39:36;97151.09;;;25.64;43.38
21574;BME280;10948;48.706;9.258;2023-04-22T09:42:01;97144.50;;;26.53;42.80
21574;BME280;10948;48.706;9.258;2023-04-22T09:44:27;97145.50;;;26.78;43.31
21574;BME280;10948;48.706;9.258;2023-04-22T09:46:53;97138.44;;;27.03;42.85
21574;BME280;10948;48.706;9.258;2023-04-22T09:49:19;97136.97;;;27.33;41.35
21574;BME280;10948;48.706;9.258;2023-04-22T09:51:45;97141.78;;;27.99;41.37
21574;BME280;10948;48.706;9.258;2023-04-22T09:54:10;97136.06;;;26.75;38.93
21574;BME280;10948;48.706;9.258;2023-04-22T09:59:05;97123.72;;;26.42;39.23
21574;BME280;10948;48.706;9.258;2023-04-22T10:01:37;97130.88;;;27.57;39.25
21574;BME280;10948;48.706;9.258;2023-04-22T10:04:03;97131.22;;;27.80;39.08
21574;BME280;10948;48.706;9.258;2023-04-22T10:06:28;97129.22;;;27.62;38.72
21574;BME280;10948;48.706;9.258;2023-04-22T10:08:55;97116.22;;;27.09;38.16
21574;BME280;10948;48.706;9.258;2023-04-22T10:11:21;97114.03;;;28.25;38.66
21574;BME280;10948;48.706;9.258;2023-04-22T10:13:46;97121.00;;;27.57;37.96
21574;BME280;10948;48.706;9.258;2023-04-22T10:16:11;97117.00;;;28.10;37.93
21574;BME280;10948;48.706;9.258;2023-04-22T10:18:37;97115.88;;;28.98;37.37
21574;BME280;10948;48.706;9.258;2023-04-22T10:21:03;97117.19;;;29.61;36.19
21574;BME280;10948;48.706;9.258;2023-04-22T10:23:31;97119.00;;;30.08;36.53
21574;BME280;10948;48.706;9.258;2023-04-22T10:25:56;97119.59;;;29.33;37.45
21574;BME280;10948;48.706;9.258;2023-04-22T10:28:22;97114.22;;;29.51;37.08
21574;BME280;10948;48.706;9.258;2023-04-22T10:30:48;97118.66;;;28.60;37.51
21574;BME280;10948;48.706;9.258;2023-04-22T10:41:27;97105.72;;;29.54;35.59
21574;BME280;10948;48.706;9.258;2023-04-22T10:43:56;97106.38;;;29.97;35.58
21574;BME280;10948;48.706;9.258;2023-04-22T10:48:57;97092.59;;;30.57;35.06
21574;BME280;10948;48.706;9.258;2023-04-22T10:51:41;97085.69;;;30.27;33.59
21574;BME280;10948;48.706;9.258;2023-04-22T10:54:07;97089.38;;;30.90;33.27
21574;BME280;10948;48.706;9.258;2023-04-22T10:57:08;97092.38;;;29.47;33.87
21574;BME280;10948;48.706;9.258;2023-04-22T10:59:38;97087.06;;;29.77;33.29
21574;BME280;10948;48.706;9.258;2023-04-22T11:02:05;97087.59;;;30.72;33.07
21574;BME280;10948;48.706;9.258;2023-04-22T11:04:31;97084.84;;;29.85;33.22
21574;BME280;10948;48.706;9.258;2023-04-22T11:09:42;97091.06;;;30.38;33.04
21574;BME280;10948;48.706;9.258;2023-04-22T11:14:52;97091.09;;;29.50;32.40
21574;BME280;10948;48.706;9.258;2023-04-22T11:17:18;97089.88;;;29.93;32.57
21574;BME280;10948;48.706;9.258;2023-04-22T11:19:43;97086.75;;;29.96;32.53
21574;BME280;10948;48.706;9.258;2023-04-22T11:22:09;97086.59;;;30.09;32.31
21574;BME280;10948;48.706;9.258;2023-04-22T11:24:35;97089.28;;;29.80;32.30
21574;BME280;10948;48.706;9.258;2023-04-22T11:27:00;97083.25;;;30.83;31.63
21574;BME280;10948;48.706;9.258;2023-04-22T11:29:28;97085.47;;;30.97;31.83
21574;BME280;10948;48.706;9.258;2023-04-22T11:31:53;97086.06;;;31.22;31.95
21574;BME280;10948;48.706;9.258;2023-04-22T11:34:20;97075.53;;;31.09;31.89
21574;BME280;10948;48.706;9.258;2023-04-22T11:36:46;97078.50;;;30.85;33.33
21574;BME280;10948;48.706;9.258;2023-04-22T11:39:11;97066.78;;;31.02;32.24
21574;BME280;10948;48.706;9.258;2023-04-22T11:41:41;97069.97;;;31.66;31.36
21574;BME280;10948;48.706;9.258;2023-04-22T11:44:07;97063.69;;;31.10;31.01
21574;BME280;10948;48.706;9.258;2023-04-22T11:46:32;97071.59;;;30.66;31.23
21574;BME280;10948;48.706;9.258;2023-04-22T11:49:15;97069.22;;;30.46;31.96
21574;BME280;10948;48.706;9.258;2023-04-22T11:51:53;97060.97;;;30.07;30.59
21574;BME280;10948;48.706;9.258;2023-04-22T11:54:32;97071.31;;;29.80;33.07
21574;BME280;10948;48.706;9.258;2023-04-22T11:57:00;97067.00;;;29.14;32.08
21574;BME280;10948;48.706;9.258;2023-04-22T11:59:26;97078.44;;;28.67;34.24
21574;BME280;10948;48.706;9.258;2023-04-22T12:01:52;97074.47;;;29.59;33.79
21574;BME280;10948;48.706;9.258;2023-04-22T12:04:21;97073.31;;;30.37;33.38
21574;BME280;10948;48.706;9.258;2023-04-22T12:06:48;97064.53;;;31.11;32.02
21574;BME280;10948;48.706;9.258;2023-04-22T12:09:13;97065.66;;;31.38;32.21
21574;BME280;10948;48.706;9.258;2023-04-22T12:11:38;97065.84;;;30.51;32.13
21574;BME280;10948;48.706;9.258;2023-04-22T12:14:04;97065.06;;;29.39;33.06
21574;BME280;10948;48.706;9.258;2023-04-22T12:16:37;97068.63;;;28.79;33.81
21574;BME280;10948;48.706;9.258;2023-04-22T12:19:03;97063.06;;;29.34;33.13
21574;BME280;10948;48.706;9.258;2023-04-22T12:21:28;97053.63;;;29.43;33.47
21574;BME280;10948;48.706;9.258;2023-04-22T12:23:56;97053.47;;;29.86;31.74
21574;BME280;10948;48.706;9.258;2023-04-22T12:26:23;97050.59;;;29.99;32.71
21574;BME280;10948;48.706;9.258;2023-04-22T12:28:48;97058.84;;;29.86;33.14
21574;BME280;10948;48.706;9.258;2023-04-22T12:31:14;97052.94;;;29.48;33.32
21574;BME280;10948;48.706;9.258;2023-04-22T12:33:40;97047.78;;;28.81;34.86
21574;BME280;10948;48.706;9.258;2023-04-22T12:36:06;97054.00;;;28.57;35.74
21574;BME280;10948;48.706;9.258;2023-04-22T12:38:31;97056.75;;;28.26;34.23
21574;BME280;10948;48.706;9.258;2023-04-22T12:40:57;97059.16;;;28.09;34.25
21574;BME280;10948;48.706;9.258;2023-04-22T12:43:22;97050.38;;;28.02;35.52
21574;BME280;10948;48.706;9.258;2023-04-22T12:45:48;97061.06;;;28.02;34.33
21574;BME280;10948;48.706;9.258;2023-04-22T12:48:14;97057.38;;;27.97;34.71
21574;BME280;10948;48.706;9.258;2023-04-22T12:50:39;97055.81;;;28.14;34.80
21574;BME280;10948;48.706;9.258;2023-04-22T12:53:05;97059.16;;;27.85;35.40
21574;BME280;10948;48.706;9.258;2023-04-22T12:55:30;97059.22;;;28.27;35.66
21574;BME280;10948;48.706;9.258;2023-04-22T12:57:56;97052.38;;;28.07;35.59
21574;BME280;10948;48.706;9.258;2023-04-22T13:00:21;97060.84;;;27.73;36.08
21574;BME280;10948;48.706;9.258;2023-04-22T13:02:47;97057.59;;;27.27;37.77
21574;BME280;10948;48.706;9.258;2023-04-22T13:05:13;97064.00;;;27.26;37.90
21574;BME280;10948;48.706;9.258;2023-04-22T13:07:39;97057.78;;;27.32;37.36